Kaisei Maru — JD3114 — position and weather

sailwx.info

Track history (hours):
 
Tides and Currents Weather Stations Pressure Air Temp Water Temp Dewpoint Dewpoint Depression Visibility Wind Speed Wind Dir Waves Ship Positions

Kaisei Maru

Last reported at 2016-May-04 18:33 UTC. Time now 2016-May-04 19:21 UTC.
Position N 34°41' E 135°12'.

Length 52 m; draft 3.8 m.

Type: Tanker. MMSI: 431001837.

Date/timePositionNaut miles runAvg speedWind from/ knotsBaromVisibWave heightAir tempDewpointWater temp
2016-May-04 18:33N 34°41' E 135°12'0 0.0
2016-May-04 17:33N 34°41' E 135°12'0 0.0
2016-May-04 16:33N 34°41' E 135°12'0 0.0
2016-May-04 15:33N 34°41' E 135°12'0 0.0
2016-May-04 14:33N 34°41' E 135°12'0 0.0
2016-May-04 13:33N 34°41' E 135°12'0 0.0
2016-May-04 12:33N 34°41' E 135°12'0 0.0
2016-May-04 11:33N 34°41' E 135°12'0 0.0
2016-May-04 10:33N 34°41' E 135°12'0 0.0
2016-May-04 09:33N 34°41' E 135°12'0 0.0
2016-May-04 08:33N 34°41' E 135°12'0 0.0
2016-May-04 07:33N 34°41' E 135°12'0 0.0
2016-May-04 06:33N 34°41' E 135°12'0 0.0
2016-May-04 05:32N 34°41' E 135°12'0 0.0
2016-May-04 04:33N 34°41' E 135°12'0 0.0
2016-May-04 03:33N 34°41' E 135°12'0 0.0
2016-May-04 02:33N 34°41' E 135°12'0 0.0
2016-May-04 01:32N 34°41' E 135°12'0 0.0
2016-May-04 00:33N 34°41' E 135°12'0 0.0
2016-May-03 23:32N 34°41' E 135°12'0 0.0
2016-May-03 22:33N 34°41' E 135°12'0 0.0
2016-May-03 21:33N 34°41' E 135°12'0 0.0
2016-May-03 20:33N 34°41' E 135°12'0 0.0
2016-May-03 19:33N 34°41' E 135°12'0 0.0
2016-May-03 18:33N 34°41' E 135°12'0 0.0
2016-May-03 17:33N 34°41' E 135°12'0 0.0
2016-May-03 16:33N 34°41' E 135°12'0 0.0
2016-May-03 15:33N 34°41' E 135°12'0 0.0
2016-May-03 14:33N 34°41' E 135°12'0 0.0
2016-May-03 13:33N 34°41' E 135°12'0 0.0
2016-May-03 12:33N 34°41' E 135°12'0 0.0
2016-May-03 11:33N 34°41' E 135°12'0 0.0
2016-May-03 10:33N 34°41' E 135°12'0 0.0
2016-May-03 09:33N 34°41' E 135°12'0 0.0
2016-May-03 08:33N 34°41' E 135°12'0 0.0
2016-May-03 07:33N 34°41' E 135°12'0 0.0
2016-May-03 06:33N 34°41' E 135°12'0 0.0
2016-May-03 05:33N 34°41' E 135°12'0 0.0
2016-May-03 04:33N 34°41' E 135°12'0 0.0
2016-May-03 03:33N 34°41' E 135°12'0 0.0
2016-May-03 02:33N 34°41' E 135°12'0 0.0
2016-May-03 01:33N 34°41' E 135°12'0 0.0
2016-May-03 00:33N 34°41' E 135°12'0 0.0
2016-May-02 23:33N 34°41' E 135°12'0 0.0
2016-May-02 22:33N 34°41' E 135°12'0 0.0
2016-May-02 21:33N 34°41' E 135°12'7 6.9
2016-May-02 20:33N 34°34' E 135°14'1110.6
2016-May-02 19:33N 34°25' E 135°08'1110.9
2016-May-02 18:30N 34°15' E 135°02'  
2016-Apr-29 04:14N 34°37' E 134°57'710.4
2016-Apr-29 03:33N 34°37' E 135°06'4 3.9
2016-Apr-29 02:33N 34°39' E 135°10'0 0.0
2016-Apr-29 01:33N 34°39' E 135°10'0 0.0
2016-Apr-29 00:33N 34°39' E 135°10'0 0.0
2016-Apr-28 23:33N 34°39' E 135°10'3 3.0
2016-Apr-28 22:33N 34°41' E 135°12'0 0.0
2016-Apr-28 21:33N 34°41' E 135°12'0 0.0
2016-Apr-28 20:33N 34°41' E 135°12'0 0.0
2016-Apr-28 19:33N 34°41' E 135°12'0 0.0
2016-Apr-28 18:33N 34°41' E 135°12'0 0.0
2016-Apr-28 17:33N 34°41' E 135°12'0 0.0
2016-Apr-28 16:33N 34°41' E 135°12'0 0.0
2016-Apr-28 15:33N 34°41' E 135°12'0 0.0
2016-Apr-28 14:33N 34°41' E 135°12'0 0.0
2016-Apr-28 13:33N 34°41' E 135°12'0 0.0
2016-Apr-28 12:33N 34°41' E 135°12'0 0.0
2016-Apr-28 11:33N 34°41' E 135°12'0 0.0
2016-Apr-28 10:33N 34°41' E 135°12'0 0.0
2016-Apr-28 09:33N 34°41' E 135°12'0 0.0
2016-Apr-28 08:33N 34°41' E 135°12'0 0.0
2016-Apr-28 07:33N 34°41' E 135°12'0 0.0
2016-Apr-28 06:33N 34°41' E 135°12'0 0.0
2016-Apr-28 05:33N 34°41' E 135°12'0 0.0
2016-Apr-28 04:33N 34°41' E 135°12'0 0.0
2016-Apr-28 03:33N 34°41' E 135°12'0 0.2
2016-Apr-28 02:33N 34°41' E 135°12'10 9.0
2016-Apr-28 01:30N 34°42' E 135°24'0 0.5
2016-Apr-28 00:32N 34°42' E 135°23'0 0.0
2016-Apr-27 23:33N 34°42' E 135°23'0 0.0
2016-Apr-27 22:33N 34°42' E 135°23'0 0.0
2016-Apr-27 21:33N 34°42' E 135°23'1 1.0
2016-Apr-27 20:33N 34°41' E 135°23'0 0.0
2016-Apr-27 19:33N 34°41' E 135°23'0 0.0
2016-Apr-27 18:33N 34°41' E 135°23'0 0.0
2016-Apr-27 17:33N 34°41' E 135°23'0 0.0
2016-Apr-27 16:33N 34°41' E 135°23'0 0.0
2016-Apr-27 15:33N 34°41' E 135°23'0 0.0
2016-Apr-27 14:33N 34°41' E 135°23'0 0.0
2016-Apr-27 13:33N 34°41' E 135°23'0 0.0
2016-Apr-27 12:33N 34°41' E 135°23'0 0.0
2016-Apr-27 11:33N 34°41' E 135°23'0 0.0
2016-Apr-27 10:33N 34°41' E 135°23'4 3.7
2016-Apr-27 09:33N 34°38' E 135°21'10 9.4
2016-Apr-27 08:32N 34°29' E 135°19'3 0.6
2016-Apr-27 03:33N 34°26' E 135°19'1010.2
2016-Apr-27 02:33N 34°36' E 135°19'7 7.3
2016-Apr-27 01:33N 34°42' E 135°24'0 0.4
2016-Apr-27 00:33N 34°42' E 135°23'0 0.0
2016-Apr-26 23:33N 34°42' E 135°23'0 0.0
2016-Apr-26 22:33N 34°42' E 135°23'0 0.0
2016-Apr-26 21:33N 34°42' E 135°23'1 1.0
2016-Apr-26 20:33N 34°41' E 135°23'0 0.0
2016-Apr-26 19:33N 34°41' E 135°23'0 0.0
2016-Apr-26 18:33N 34°41' E 135°23'0 0.0
2016-Apr-26 17:33N 34°41' E 135°23'0 0.0
2016-Apr-26 16:33N 34°41' E 135°23'0 0.0
2016-Apr-26 15:33N 34°41' E 135°23'0 0.0
2016-Apr-26 14:33N 34°41' E 135°23'0 0.0
2016-Apr-26 13:33N 34°41' E 135°23'0 0.0
2016-Apr-26 12:33N 34°41' E 135°23'0 0.0
2016-Apr-26 11:33N 34°41' E 135°23'0 0.0
2016-Apr-26 10:33N 34°41' E 135°23'0 0.0
2016-Apr-26 09:33N 34°41' E 135°23'0 0.0
2016-Apr-26 08:33N 34°41' E 135°23'0 0.0
2016-Apr-26 07:33N 34°41' E 135°23'6 6.4
2016-Apr-26 06:33N 34°41' E 135°15'3 3.1
2016-Apr-26 05:33N 34°41' E 135°12'0 0.0
2016-Apr-26 04:33N 34°41' E 135°12'0 0.0
2016-Apr-26 03:33N 34°41' E 135°12'9 8.9
2016-Apr-26 02:33N 34°41' E 135°23'2 0.7
2016-Apr-26 00:26N 34°42' E 135°23'0 0.0
2016-Apr-25 23:33N 34°42' E 135°23'0 0.0
2016-Apr-25 22:33N 34°42' E 135°23'0 0.5
2016-Apr-25 21:33N 34°42' E 135°24'1 1.0
2016-Apr-25 20:33N 34°41' E 135°23'0 0.0
2016-Apr-25 19:33N 34°41' E 135°23'0 0.0
2016-Apr-25 18:33N 34°41' E 135°23'0 0.0
2016-Apr-25 17:33N 34°41' E 135°23'0 0.0
2016-Apr-25 16:33N 34°41' E 135°23'0 0.0
2016-Apr-25 15:33N 34°41' E 135°23'0 0.0
2016-Apr-25 14:33N 34°41' E 135°23'0 0.0
2016-Apr-25 13:33N 34°41' E 135°23'0 0.0
2016-Apr-25 12:33N 34°41' E 135°23'7 7.4
2016-Apr-25 11:33N 34°41' E 135°14'2 2.1
2016-Apr-25 10:33N 34°41' E 135°12'0 0.0
2016-Apr-25 09:33N 34°41' E 135°12'0 0.0
2016-Apr-25 08:33N 34°41' E 135°12'1 1.2
2016-Apr-25 07:33N 34°40' E 135°12'0 0.1
2016-Apr-25 06:33N 34°40' E 135°12'0 0.0
2016-Apr-25 05:33N 34°40' E 135°12'0 0.0
2016-Apr-25 04:33N 34°40' E 135°12'0 0.0
2016-Apr-25 03:33N 34°40' E 135°12'9 8.8
2016-Apr-25 02:33N 34°41' E 135°23'2 1.1
2016-Apr-25 01:04N 34°42' E 135°23'0 0.0
2016-Apr-25 00:33N 34°42' E 135°23'0 0.0
2016-Apr-24 23:33N 34°42' E 135°23'0 0.0
2016-Apr-24 22:33N 34°42' E 135°23'0 0.5
2016-Apr-24 21:33N 34°42' E 135°24'1 1.0
2016-Apr-24 20:33N 34°41' E 135°23'0 0.0
2016-Apr-24 19:33N 34°41' E 135°23'0 0.0
2016-Apr-24 18:33N 34°41' E 135°23'  
Track history (hours):
 
Tides and Currents Weather Stations Pressure Air Temp Water Temp Dewpoint Dewpoint Depression Visibility Wind Speed Wind Dir Waves Ship Positions

Kaisei Maru

Last reported at 2016-May-04 18:33 UTC. Time now 2016-May-04 19:21 UTC.
Position N 34°41' E 135°12'.

Length 52 m; draft 3.8 m.

Type: Tanker. MMSI: 431001837.

Date/timePositionNaut miles runAvg speedWind from/ knotsBaromVisibWave heightAir tempDewpointWater temp
2016-May-04 18:33N 34°41' E 135°12'0 0.0
2016-May-04 17:33N 34°41' E 135°12'0 0.0
2016-May-04 16:33N 34°41' E 135°12'0 0.0
2016-May-04 15:33N 34°41' E 135°12'0 0.0
2016-May-04 14:33N 34°41' E 135°12'0 0.0
2016-May-04 13:33N 34°41' E 135°12'0 0.0
2016-May-04 12:33N 34°41' E 135°12'0 0.0
2016-May-04 11:33N 34°41' E 135°12'0 0.0
2016-May-04 10:33N 34°41' E 135°12'0 0.0
2016-May-04 09:33N 34°41' E 135°12'0 0.0
2016-May-04 08:33N 34°41' E 135°12'0 0.0
2016-May-04 07:33N 34°41' E 135°12'0 0.0
2016-May-04 06:33N 34°41' E 135°12'0 0.0
2016-May-04 05:32N 34°41' E 135°12'0 0.0
2016-May-04 04:33N 34°41' E 135°12'0 0.0
2016-May-04 03:33N 34°41' E 135°12'0 0.0
2016-May-04 02:33N 34°41' E 135°12'0 0.0
2016-May-04 01:32N 34°41' E 135°12'0 0.0
2016-May-04 00:33N 34°41' E 135°12'0 0.0
2016-May-03 23:32N 34°41' E 135°12'0 0.0
2016-May-03 22:33N 34°41' E 135°12'0 0.0
2016-May-03 21:33N 34°41' E 135°12'0 0.0
2016-May-03 20:33N 34°41' E 135°12'0 0.0
2016-May-03 19:33N 34°41' E 135°12'0 0.0
2016-May-03 18:33N 34°41' E 135°12'0 0.0
2016-May-03 17:33N 34°41' E 135°12'0 0.0
2016-May-03 16:33N 34°41' E 135°12'0 0.0
2016-May-03 15:33N 34°41' E 135°12'0 0.0
2016-May-03 14:33N 34°41' E 135°12'0 0.0
2016-May-03 13:33N 34°41' E 135°12'0 0.0
2016-May-03 12:33N 34°41' E 135°12'0 0.0
2016-May-03 11:33N 34°41' E 135°12'0 0.0
2016-May-03 10:33N 34°41' E 135°12'0 0.0
2016-May-03 09:33N 34°41' E 135°12'0 0.0
2016-May-03 08:33N 34°41' E 135°12'0 0.0
2016-May-03 07:33N 34°41' E 135°12'0 0.0
2016-May-03 06:33N 34°41' E 135°12'0 0.0
2016-May-03 05:33N 34°41' E 135°12'0 0.0
2016-May-03 04:33N 34°41' E 135°12'0 0.0
2016-May-03 03:33N 34°41' E 135°12'0 0.0
2016-May-03 02:33N 34°41' E 135°12'0 0.0
2016-May-03 01:33N 34°41' E 135°12'0 0.0
2016-May-03 00:33N 34°41' E 135°12'0 0.0
2016-May-02 23:33N 34°41' E 135°12'0 0.0
2016-May-02 22:33N 34°41' E 135°12'0 0.0
2016-May-02 21:33N 34°41' E 135°12'7 6.9
2016-May-02 20:33N 34°34' E 135°14'1110.6
2016-May-02 19:33N 34°25' E 135°08'1110.9
2016-May-02 18:30N 34°15' E 135°02'  
2016-Apr-29 04:14N 34°37' E 134°57'710.4
2016-Apr-29 03:33N 34°37' E 135°06'4 3.9
2016-Apr-29 02:33N 34°39' E 135°10'0 0.0
2016-Apr-29 01:33N 34°39' E 135°10'0 0.0
2016-Apr-29 00:33N 34°39' E 135°10'0 0.0
2016-Apr-28 23:33N 34°39' E 135°10'3 3.0
2016-Apr-28 22:33N 34°41' E 135°12'0 0.0
2016-Apr-28 21:33N 34°41' E 135°12'0 0.0
2016-Apr-28 20:33N 34°41' E 135°12'0 0.0
2016-Apr-28 19:33N 34°41' E 135°12'0 0.0
2016-Apr-28 18:33N 34°41' E 135°12'0 0.0
2016-Apr-28 17:33N 34°41' E 135°12'0 0.0
2016-Apr-28 16:33N 34°41' E 135°12'0 0.0
2016-Apr-28 15:33N 34°41' E 135°12'0 0.0
2016-Apr-28 14:33N 34°41' E 135°12'0 0.0
2016-Apr-28 13:33N 34°41' E 135°12'0 0.0
2016-Apr-28 12:33N 34°41' E 135°12'0 0.0
2016-Apr-28 11:33N 34°41' E 135°12'0 0.0
2016-Apr-28 10:33N 34°41' E 135°12'0 0.0
2016-Apr-28 09:33N 34°41' E 135°12'0 0.0
2016-Apr-28 08:33N 34°41' E 135°12'0 0.0
2016-Apr-28 07:33N 34°41' E 135°12'0 0.0
2016-Apr-28 06:33N 34°41' E 135°12'0 0.0
2016-Apr-28 05:33N 34°41' E 135°12'0 0.0
2016-Apr-28 04:33N 34°41' E 135°12'0 0.0
2016-Apr-28 03:33N 34°41' E 135°12'0 0.2
2016-Apr-28 02:33N 34°41' E 135°12'10 9.0
2016-Apr-28 01:30N 34°42' E 135°24'0 0.5
2016-Apr-28 00:32N 34°42' E 135°23'0 0.0
2016-Apr-27 23:33N 34°42' E 135°23'0 0.0
2016-Apr-27 22:33N 34°42' E 135°23'0 0.0
2016-Apr-27 21:33N 34°42' E 135°23'1 1.0
2016-Apr-27 20:33N 34°41' E 135°23'0 0.0
2016-Apr-27 19:33N 34°41' E 135°23'0 0.0
2016-Apr-27 18:33N 34°41' E 135°23'0 0.0
2016-Apr-27 17:33N 34°41' E 135°23'0 0.0
2016-Apr-27 16:33N 34°41' E 135°23'0 0.0
2016-Apr-27 15:33N 34°41' E 135°23'0 0.0
2016-Apr-27 14:33N 34°41' E 135°23'0 0.0
2016-Apr-27 13:33N 34°41' E 135°23'0 0.0
2016-Apr-27 12:33N 34°41' E 135°23'0 0.0
2016-Apr-27 11:33N 34°41' E 135°23'0 0.0
2016-Apr-27 10:33N 34°41' E 135°23'4 3.7
2016-Apr-27 09:33N 34°38' E 135°21'10 9.4
2016-Apr-27 08:32N 34°29' E 135°19'3 0.6
2016-Apr-27 03:33N 34°26' E 135°19'1010.2
2016-Apr-27 02:33N 34°36' E 135°19'7 7.3
2016-Apr-27 01:33N 34°42' E 135°24'0 0.4
2016-Apr-27 00:33N 34°42' E 135°23'0 0.0
2016-Apr-26 23:33N 34°42' E 135°23'0 0.0
2016-Apr-26 22:33N 34°42' E 135°23'0 0.0
2016-Apr-26 21:33N 34°42' E 135°23'1 1.0
2016-Apr-26 20:33N 34°41' E 135°23'0 0.0
2016-Apr-26 19:33N 34°41' E 135°23'0 0.0
2016-Apr-26 18:33N 34°41' E 135°23'0 0.0
2016-Apr-26 17:33N 34°41' E 135°23'0 0.0
2016-Apr-26 16:33N 34°41' E 135°23'0 0.0
2016-Apr-26 15:33N 34°41' E 135°23'0 0.0
2016-Apr-26 14:33N 34°41' E 135°23'0 0.0
2016-Apr-26 13:33N 34°41' E 135°23'0 0.0
2016-Apr-26 12:33N 34°41' E 135°23'0 0.0
2016-Apr-26 11:33N 34°41' E 135°23'0 0.0
2016-Apr-26 10:33N 34°41' E 135°23'0 0.0
2016-Apr-26 09:33N 34°41' E 135°23'0 0.0
2016-Apr-26 08:33N 34°41' E 135°23'0 0.0
2016-Apr-26 07:33N 34°41' E 135°23'6 6.4
2016-Apr-26 06:33N 34°41' E 135°15'3 3.1
2016-Apr-26 05:33N 34°41' E 135°12'0 0.0
2016-Apr-26 04:33N 34°41' E 135°12'0 0.0
2016-Apr-26 03:33N 34°41' E 135°12'9 8.9
2016-Apr-26 02:33N 34°41' E 135°23'2 0.7
2016-Apr-26 00:26N 34°42' E 135°23'0 0.0
2016-Apr-25 23:33N 34°42' E 135°23'0 0.0
2016-Apr-25 22:33N 34°42' E 135°23'0 0.5
2016-Apr-25 21:33N 34°42' E 135°24'1 1.0
2016-Apr-25 20:33N 34°41' E 135°23'0 0.0
2016-Apr-25 19:33N 34°41' E 135°23'0 0.0
2016-Apr-25 18:33N 34°41' E 135°23'0 0.0
2016-Apr-25 17:33N 34°41' E 135°23'0 0.0
2016-Apr-25 16:33N 34°41' E 135°23'0 0.0
2016-Apr-25 15:33N 34°41' E 135°23'0 0.0
2016-Apr-25 14:33N 34°41' E 135°23'0 0.0
2016-Apr-25 13:33N 34°41' E 135°23'0 0.0
2016-Apr-25 12:33N 34°41' E 135°23'7 7.4
2016-Apr-25 11:33N 34°41' E 135°14'2 2.1
2016-Apr-25 10:33N 34°41' E 135°12'0 0.0
2016-Apr-25 09:33N 34°41' E 135°12'0 0.0
2016-Apr-25 08:33N 34°41' E 135°12'1 1.2
2016-Apr-25 07:33N 34°40' E 135°12'0 0.1
2016-Apr-25 06:33N 34°40' E 135°12'0 0.0
2016-Apr-25 05:33N 34°40' E 135°12'0 0.0
2016-Apr-25 04:33N 34°40' E 135°12'0 0.0
2016-Apr-25 03:33N 34°40' E 135°12'9 8.8
2016-Apr-25 02:33N 34°41' E 135°23'2 1.1
2016-Apr-25 01:04N 34°42' E 135°23'0 0.0
2016-Apr-25 00:33N 34°42' E 135°23'0 0.0
2016-Apr-24 23:33N 34°42' E 135°23'0 0.0
2016-Apr-24 22:33N 34°42' E 135°23'0 0.5
2016-Apr-24 21:33N 34°42' E 135°24'1 1.0
2016-Apr-24 20:33N 34°41' E 135°23'0 0.0
2016-Apr-24 19:33N 34°41' E 135°23'0 0.0
2016-Apr-24 18:33N 34°41' E 135°23'  

Dump ship's entire track history